Time;durP1;ratioP1;P1;durP2;ratioP2;P2;SDS_P1;SDS_P2;PMS_P1;PMS_P2;Temp;Humidity;BMP_temperature;BMP_pressure;BME280_temperature;BME280_humidity;BME280_pressure;Samples;Min_cycle;Max_cycle;Signal;HPM_P1;HPM_P2
2023/01/25 00:00:00;;;;;;;;;;;;;;;5.32;97.71;101788.94;5088520;28;19981;-61
2023/01/25 00:02:26;;;;;;;;;;;;;;;5.29;97.94;101790.63;5088057;28;19958;-61
2023/01/25 00:04:51;;;;;;;;;;;;;;;5.26;97.96;101788.84;5082125;28;19953;-61
2023/01/25 00:07:17;;;;;;;;;;;;;;;5.29;98.34;101786.25;5090324;28;19937;-62
2023/01/25 00:09:42;;;;;;;;;;;;;;;5.26;98.04;101791.47;5089218;28;20399;-62
2023/01/25 00:12:07;;;;;;;;;;;;;;;5.24;98.40;101781.75;5090720;28;19933;-62
2023/01/25 00:14:32;;;;;;;;;;;;;;;5.24;98.09;101779.09;5093636;28;19939;-62
2023/01/25 00:16:58;;;;;;;;;;;;;;;5.22;98.03;101773.81;5093726;28;19939;-61
2023/01/25 00:19:23;;;;;;;;;;;;;;;5.21;97.28;101771.16;5089876;28;20342;-62
2023/01/25 00:21:48;;;;;;;;;;;;;;;5.24;96.96;101768.56;5093727;28;19945;-61
2023/01/25 00:24:14;;;;;;;;;;;;;;;5.24;98.31;101769.44;5092708;28;20395;-62
2023/01/25 00:26:42;;;;;;;;;;;;;;;5.25;97.68;101773.00;5085108;28;19944;-62
2023/01/25 00:29:10;;;;;;;;;;;;;;;5.20;96.80;101765.00;5090839;28;19979;-62
2023/01/25 00:31:57;;;;;;;;;;;;;;;5.21;96.80;101766.75;5093167;28;19937;-62
2023/01/25 00:34:23;;;;;;;;;;;;;;;5.18;96.96;101769.34;5093504;28;20031;-62
2023/01/25 00:36:54;;;;;;;;;;;;;;;5.16;97.69;101763.16;5090303;28;20032;-61
2023/01/25 00:39:19;;;;;;;;;;;;;;;5.11;97.40;101753.38;5094174;28;20480;-62
2023/01/25 00:41:45;;;;;;;;;;;;;;;5.05;97.77;101754.19;5094265;28;20032;-61
2023/01/25 00:44:10;;;;;;;;;;;;;;;5.07;98.34;101751.56;5090701;28;19941;-62
2023/01/25 00:46:35;;;;;;;;;;;;;;;5.06;98.34;101750.69;5089761;28;19935;-62
2023/01/25 00:49:01;;;;;;;;;;;;;;;5.03;98.06;101744.47;5091737;28;20046;-62
2023/01/25 00:51:26;;;;;;;;;;;;;;;5.04;97.94;101740.97;5087548;28;19966;-62
2023/01/25 00:53:51;;;;;;;;;;;;;;;5.00;98.09;101750.59;5068798;28;19942;-62
2023/01/25 00:56:17;;;;;;;;;;;;;;;4.93;98.26;101740.78;5071745;28;20450;-62
2023/01/25 00:58:42;;;;;;;;;;;;;;;4.94;97.90;101749.59;5072626;28;19939;-63
2023/01/25 01:01:08;;;;;;;;;;;;;;;4.96;98.17;101747.84;5071586;28;19969;-63
2023/01/25 01:03:33;;;;;;;;;;;;;;;4.99;97.69;101738.25;5055940;28;19941;-62
2023/01/25 01:06:17;;;;;;;;;;;;;;;4.92;97.76;101741.66;5058483;28;19987;-62
2023/01/25 01:08:42;;;;;;;;;;;;;;;4.82;98.55;101745.00;5052555;28;19992;-62
2023/01/25 01:11:09;;;;;;;;;;;;;;;4.77;98.43;101741.38;5052521;28;19939;-63
2023/01/25 01:13:34;;;;;;;;;;;;;;;4.78;98.27;101743.13;5051788;28;19933;-62
2023/01/25 01:16:03;;;;;;;;;;;;;;;4.71;99.10;101722.78;5066383;28;20054;-62
2023/01/25 01:18:39;;;;;;;;;;;;;;;4.65;99.07;101730.59;5072457;28;19944;-62
2023/01/25 01:21:04;;;;;;;;;;;;;;;4.69;99.51;101721.91;5072656;28;19938;-62
2023/01/25 01:23:30;;;;;;;;;;;;;;;4.70;99.37;101728.94;5069895;28;20006;-62
2023/01/25 01:25:58;;;;;;;;;;;;;;;4.62;99.77;101725.28;5068716;28;19937;-62
2023/01/25 01:28:23;;;;;;;;;;;;;;;4.63;100.00;101716.50;5072623;28;19929;-63
2023/01/25 01:30:49;;;;;;;;;;;;;;;4.63;99.72;101716.50;5068663;28;19998;-63
2023/01/25 01:33:14;;;;;;;;;;;;;;;4.56;100.00;101729.53;5073305;28;19947;-62
2023/01/25 01:35:39;;;;;;;;;;;;;;;4.58;100.00;101728.69;5072546;28;19954;-63
2023/01/25 01:38:04;;;;;;;;;;;;;;;4.55;100.00;101733.03;5073108;28;19940;-63
2023/01/25 01:40:30;;;;;;;;;;;;;;;4.57;100.00;101728.69;5057509;28;19944;-62
2023/01/25 01:43:14;;;;;;;;;;;;;;;4.54;100.00;101739.16;5053089;28;19941;-63
2023/01/25 01:46:00;;;;;;;;;;;;;;;4.50;100.00;101751.38;5052735;28;20354;-63
2023/01/25 01:48:40;;;;;;;;;;;;;;;4.52;100.00;101752.31;5069576;28;20031;-63
2023/01/25 01:51:11;;;;;;;;;;;;;;;4.52;100.00;101747.03;5059965;28;20011;-62
2023/01/25 01:53:38;;;;;;;;;;;;;;;4.53;100.00;101730.38;5092009;28;19940;-62
2023/01/25 01:56:06;;;;;;;;;;;;;;;4.56;100.00;101738.34;5091571;28;19952;-62
2023/01/25 01:58:32;;;;;;;;;;;;;;;4.57;100.00;101732.22;5080243;28;19989;-63
2023/01/25 02:06:48;;;;;;;;;;;;;;;4.56;100.00;101730.44;5036827;28;19952;-62
2023/01/25 02:12:04;;;;;;;;;;;;;;;4.62;100.00;101720.00;4882021;22;19967;-56
2023/01/25 02:14:29;;;;;;;;;;;;;;;4.59;100.00;101725.22;5062581;28;20383;-58
2023/01/25 02:16:54;;;;;;;;;;;;;;;4.54;100.00;101715.44;5057064;28;19944;-57
2023/01/25 02:19:37;;;;;;;;;;;;;;;4.50;100.00;101714.50;5049993;28;20045;-57
2023/01/25 02:22:06;;;;;;;;;;;;;;;4.51;100.00;101715.41;5048964;28;19945;-57
2023/01/25 02:24:32;;;;;;;;;;;;;;;4.49;100.00;101717.09;5060167;28;20419;-57
2023/01/25 02:26:57;;;;;;;;;;;;;;;4.48;100.00;101723.25;5054737;28;19943;-57
2023/01/25 02:29:23;;;;;;;;;;;;;;;4.47;100.00;101719.72;5049715;28;19932;-57
2023/01/25 02:31:51;;;;;;;;;;;;;;;4.48;100.00;101716.22;5052858;28;19937;-56
2023/01/25 02:34:17;;;;;;;;;;;;;;;4.47;100.00;101719.72;5050420;28;19979;-56
2023/01/25 02:36:42;;;;;;;;;;;;;;;4.51;100.00;101721.56;5050100;28;20384;-57
2023/01/25 02:39:08;;;;;;;;;;;;;;;4.47;100.00;101710.91;5050857;28;19951;-57
2023/01/25 02:41:34;;;;;;;;;;;;;;;4.45;100.00;101715.28;5051691;28;20032;-57
2023/01/25 02:44:00;;;;;;;;;;;;;;;4.35;100.00;101708.94;5070497;28;20016;-57
2023/01/25 02:46:30;;;;;;;;;;;;;;;4.32;100.00;101707.97;5068939;28;19953;-57
2023/01/25 02:48:56;;;;;;;;;;;;;;;4.31;100.00;101701.84;5067758;28;20282;-57
2023/01/25 02:51:22;;;;;;;;;;;;;;;4.32;100.00;101703.63;5051248;28;19939;-57
2023/01/25 02:53:48;;;;;;;;;;;;;;;4.29;100.00;101697.41;5063347;28;19949;-57
2023/01/25 02:56:14;;;;;;;;;;;;;;;4.27;100.00;101701.78;5068952;28;19949;-57
2023/01/25 02:58:39;;;;;;;;;;;;;;;4.24;100.00;101699.06;5066731;28;20000;-57
2023/01/25 03:01:05;;;;;;;;;;;;;;;4.25;100.00;101696.44;5070047;28;19929;-57
2023/01/25 03:03:30;;;;;;;;;;;;;;;4.25;100.00;101691.19;5070092;28;20366;-57
2023/01/25 03:05:55;;;;;;;;;;;;;;;4.27;100.00;101700.00;5051115;28;19938;-57
2023/01/25 03:08:21;;;;;;;;;;;;;;;4.26;100.00;101695.59;5055084;28;19936;-57
2023/01/25 03:10:46;;;;;;;;;;;;;;;4.25;100.00;101695.56;5049470;28;20626;-57
2023/01/25 03:13:11;;;;;;;;;;;;;;;4.29;100.00;101702.66;5053583;28;19984;-57
2023/01/25 03:15:36;;;;;;;;;;;;;;;4.28;100.00;101699.16;5068980;28;19957;-57
2023/01/25 03:18:02;;;;;;;;;;;;;;;4.34;100.00;101696.63;5068707;28;20469;-57
2023/01/25 03:20:27;;;;;;;;;;;;;;;4.33;100.00;101700.13;5051655;28;19942;-57
2023/01/25 03:22:53;;;;;;;;;;;;;;;4.36;100.00;101691.41;5049228;28;19931;-57
2023/01/25 03:25:18;;;;;;;;;;;;;;;4.37;100.00;101690.53;5049016;28;20061;-57
2023/01/25 03:27:44;;;;;;;;;;;;;;;4.43;100.00;101681.00;5080728;28;20055;-57
2023/01/25 03:30:09;;;;;;;;;;;;;;;4.50;100.00;101693.41;5069114;28;19933;-57
2023/01/25 03:32:34;;;;;;;;;;;;;;;4.47;100.00;101677.56;5069749;28;20398;-56
2023/01/25 03:35:00;;;;;;;;;;;;;;;4.50;100.00;101682.03;5065218;28;20012;-57
2023/01/25 03:37:30;;;;;;;;;;;;;;;4.54;100.00;101673.28;5069567;28;20528;-57
2023/01/25 03:39:55;;;;;;;;;;;;;;;4.44;100.00;101674.88;5069984;28;19933;-57
2023/01/25 03:42:21;;;;;;;;;;;;;;;4.44;100.00;101666.97;5068798;28;20230;-58
2023/01/25 03:44:46;;;;;;;;;;;;;;;4.51;100.00;101678.50;5058521;28;20407;-57
2023/01/25 03:47:11;;;;;;;;;;;;;;;4.49;100.00;101674.97;5090949;28;19936;-58
2023/01/25 03:49:37;;;;;;;;;;;;;;;4.49;100.00;101667.94;5070397;28;19935;-57
2023/01/25 03:52:02;;;;;;;;;;;;;;;4.41;100.00;101669.56;5052621;28;20434;-57
2023/01/25 03:54:28;;;;;;;;;;;;;;;4.45;100.00;101673.16;5052120;28;19942;-57
2023/01/25 03:56:53;;;;;;;;;;;;;;;4.41;100.00;101672.19;5063052;28;20331;-57
2023/01/25 03:59:18;;;;;;;;;;;;;;;4.42;100.00;101668.69;5058542;28;20365;-57
2023/01/25 04:01:43;;;;;;;;;;;;;;;4.36;100.00;101672.97;5052565;28;19932;-58
2023/01/25 04:04:09;;;;;;;;;;;;;;;4.37;100.00;101665.09;5064101;28;19934;-57
2023/01/25 04:06:34;;;;;;;;;;;;;;;4.41;100.00;101671.28;5070681;28;19948;-57
2023/01/25 04:08:59;;;;;;;;;;;;;;;4.38;100.00;101669.50;5055677;28;20409;-56
2023/01/25 04:11:24;;;;;;;;;;;;;;;4.41;100.00;101674.81;5052978;28;19984;-57
2023/01/25 04:13:50;;;;;;;;;;;;;;;4.39;100.00;101671.28;5070847;28;19947;-57
2023/01/25 04:16:15;;;;;;;;;;;;;;;4.42;100.00;101660.78;5068871;28;19959;-57
2023/01/25 04:18:40;;;;;;;;;;;;;;;4.33;100.00;101665.00;5053271;28;19940;-57
2023/01/25 04:21:06;;;;;;;;;;;;;;;4.32;100.00;101672.00;5052890;28;20702;-57
2023/01/25 04:23:31;;;;;;;;;;;;;;;4.28;100.00;101670.19;5052970;28;19941;-57
2023/01/25 04:26:00;;;;;;;;;;;;;;;4.28;100.00;101670.19;5056288;28;19948;-57
2023/01/25 04:28:26;;;;;;;;;;;;;;;4.20;100.00;101663.00;5074508;28;19937;-57
2023/01/25 04:30:52;;;;;;;;;;;;;;;4.16;100.00;101664.69;5072925;28;19929;-57
2023/01/25 04:33:17;;;;;;;;;;;;;;;4.13;100.00;101667.25;5072070;28;19935;-57
2023/01/25 04:35:42;;;;;;;;;;;;;;;4.06;100.00;101654.81;5056596;28;19996;-57
2023/01/25 04:38:08;;;;;;;;;;;;;;;4.10;100.00;101659.31;5034022;28;19937;-57
2023/01/25 04:40:33;;;;;;;;;;;;;;;4.08;100.00;101658.38;5051498;28;19929;-57
2023/01/25 04:42:58;;;;;;;;;;;;;;;4.06;100.00;101652.19;5061289;28;20429;-57
2023/01/25 04:45:24;;;;;;;;;;;;;;;3.99;100.00;101659.09;5058650;28;19952;-56
2023/01/25 04:47:54;;;;;;;;;;;;;;;4.04;100.00;101659.16;5071625;28;19933;-57
2023/01/25 04:50:19;;;;;;;;;;;;;;;4.03;100.00;101654.78;5089243;28;19934;-57
2023/01/25 04:52:45;;;;;;;;;;;;;;;4.11;100.00;101655.81;5085473;28;19944;-56
2023/01/25 04:55:10;;;;;;;;;;;;;;;4.16;100.00;101659.41;5065403;28;19959;-57
2023/01/25 04:57:35;;;;;;;;;;;;;;;4.16;100.00;101662.03;5071141;28;20017;-57
2023/01/25 05:00:00;;;;;;;;;;;;;;;4.22;100.00;101656.03;5072500;28;19930;-57
2023/01/25 05:02:26;;;;;;;;;;;;;;;4.10;100.00;101654.03;5066007;28;20754;-57
2023/01/25 05:04:51;;;;;;;;;;;;;;;4.10;100.00;101654.03;5068874;28;19943;-58
2023/01/25 05:07:17;;;;;;;;;;;;;;;4.12;100.00;101657.56;5070768;28;20384;-57
2023/01/25 05:09:42;;;;;;;;;;;;;;;4.10;100.00;101648.78;5054404;28;19938;-58
2023/01/25 05:12:10;;;;;;;;;;;;;;;4.13;100.00;101654.09;5055583;28;20363;-57
2023/01/25 05:14:36;;;;;;;;;;;;;;;4.07;100.00;101654.84;5054925;28;19938;-57
2023/01/25 05:17:01;;;;;;;;;;;;;;;4.11;100.00;101647.91;5051381;28;20074;-57
2023/01/25 05:19:26;;;;;;;;;;;;;;;4.07;100.00;101652.22;5054107;28;20003;-58
2023/01/25 05:21:58;;;;;;;;;;;;;;;4.12;100.00;101644.41;5050981;28;20296;-57
2023/01/25 05:24:27;;;;;;;;;;;;;;;4.14;100.00;101647.97;5033105;28;20384;-57
2023/01/25 05:26:59;;;;;;;;;;;;;;;4.15;100.00;101640.97;5061777;28;19957;-57
2023/01/25 05:29:24;;;;;;;;;;;;;;;4.14;100.00;101644.44;5056137;28;19995;-57
2023/01/25 05:31:49;;;;;;;;;;;;;;;4.13;100.00;101648.81;5059629;28;20303;-57
2023/01/25 05:34:15;;;;;;;;;;;;;;;4.15;100.00;101652.38;5063145;28;19939;-57
2023/01/25 05:36:40;;;;;;;;;;;;;;;4.15;100.00;101655.03;5051569;28;19953;-57
2023/01/25 05:39:05;;;;;;;;;;;;;;;4.21;100.00;101646.31;5050905;28;19937;-57
2023/01/25 05:41:30;;;;;;;;;;;;;;;4.23;100.00;101644.63;5068198;28;19940;-57
2023/01/25 05:43:56;;;;;;;;;;;;;;;4.26;100.00;101644.66;5071205;28;19939;-57
2023/01/25 05:46:21;;;;;;;;;;;;;;;4.33;100.00;101639.56;5070761;28;20031;-57
2023/01/25 05:48:47;;;;;;;;;;;;;;;4.30;100.00;101636.84;5069521;28;19987;-57
2023/01/25 05:51:12;;;;;;;;;;;;;;;4.31;100.00;101643.00;5089425;28;19947;-58
2023/01/25 05:53:37;;;;;;;;;;;;;;;4.30;100.00;101642.13;5091496;28;19938;-57
2023/01/25 05:56:03;;;;;;;;;;;;;;;4.31;100.00;101638.63;5070421;28;19963;-57
2023/01/25 05:58:29;;;;;;;;;;;;;;;4.32;100.00;101639.50;5070832;28;20402;-56
2023/01/25 06:00:54;;;;;;;;;;;;;;;4.31;100.00;101629.84;5066161;28;19937;-57
2023/01/25 06:03:19;;;;;;;;;;;;;;;4.27;100.00;101636.78;5055461;28;20399;-57
2023/01/25 06:05:44;;;;;;;;;;;;;;;4.29;100.00;101629.81;5070692;28;20024;-57
2023/01/25 06:08:10;;;;;;;;;;;;;;;4.30;100.00;101639.47;5055283;28;19985;-57
2023/01/25 06:10:35;;;;;;;;;;;;;;;4.32;100.00;101634.22;5051033;28;19937;-57
2023/01/25 06:13:00;;;;;;;;;;;;;;;4.31;100.00;101633.38;5056843;28;20452;-57
2023/01/25 06:15:26;;;;;;;;;;;;;;;4.31;100.00;101637.75;5069640;28;19954;-57
2023/01/25 06:17:54;;;;;;;;;;;;;;;4.35;100.00;101634.31;5070121;28;19933;-57
2023/01/25 06:20:20;;;;;;;;;;;;;;;4.31;100.00;101627.22;5070374;28;19934;-56
2023/01/25 06:22:49;;;;;;;;;;;;;;;4.27;100.00;101631.53;5060599;28;20486;-57
2023/01/25 06:25:14;;;;;;;;;;;;;;;4.30;100.00;101626.31;5048580;28;20352;-57
2023/01/25 06:27:39;;;;;;;;;;;;;;;4.27;100.00;101628.03;5049576;28;19929;-57
2023/01/25 06:30:06;;;;;;;;;;;;;;;4.18;100.00;101630.47;5049437;28;20286;-57
2023/01/25 06:32:32;;;;;;;;;;;;;;;4.12;100.00;101631.22;5057616;28;19947;-57
2023/01/25 06:34:57;;;;;;;;;;;;;;;4.09;100.00;101625.91;5069180;28;19955;-57
2023/01/25 06:37:22;;;;;;;;;;;;;;;3.98;100.00;101611.66;5061141;28;19983;-57
2023/01/25 06:39:47;;;;;;;;;;;;;;;3.91;100.00;101620.28;5050107;28;19942;-57
2023/01/25 06:42:13;;;;;;;;;;;;;;;3.87;100.00;101619.34;5058150;28;19951;-58
2023/01/25 06:44:38;;;;;;;;;;;;;;;3.83;100.00;101614.00;5051367;28;20014;-57
2023/01/25 06:47:03;;;;;;;;;;;;;;;3.83;100.00;101611.38;5049330;28;19928;-56
2023/01/25 06:49:28;;;;;;;;;;;;;;;3.76;100.00;101617.34;5051785;28;19941;-57
2023/01/25 06:51:54;;;;;;;;;;;;;;;3.72;100.00;101603.25;5049552;28;19940;-57
2023/01/25 06:54:19;;;;;;;;;;;;;;;3.71;100.00;101608.47;5049316;28;20044;-57
2023/01/25 06:56:44;;;;;;;;;;;;;;;3.70;100.00;101604.09;5051209;28;20031;-58
2023/01/25 06:59:09;;;;;;;;;;;;;;;3.64;100.00;101598.72;5049845;28;19944;-56
2023/01/25 07:01:36;;;;;;;;;;;;;;;3.65;100.00;101605.75;5056813;28;19937;-57
2023/01/25 07:04:01;;;;;;;;;;;;;;;3.63;100.00;101600.44;5076200;28;20372;-57
2023/01/25 07:06:31;;;;;;;;;;;;;;;3.64;100.00;101596.94;5066822;28;19980;-57
2023/01/25 07:09:00;;;;;;;;;;;;;;;3.67;100.00;101604.03;5051515;28;20002;-57
2023/01/25 07:11:25;;;;;;;;;;;;;;;3.69;100.00;101594.44;5047622;28;19961;-57
2023/01/25 07:13:51;;;;;;;;;;;;;;;3.72;100.00;101597.97;5059374;28;20398;-57
2023/01/25 07:16:18;;;;;;;;;;;;;;;3.69;100.00;101602.31;5065292;28;19958;-56
2023/01/25 07:18:43;;;;;;;;;;;;;;;3.69;100.00;101597.06;5069498;28;19940;-58
2023/01/25 07:21:12;;;;;;;;;;;;;;;3.70;100.00;101598.81;5069523;28;19933;-57
2023/01/25 07:23:38;;;;;;;;;;;;;;;3.72;100.00;101597.13;5053095;28;19984;-56
2023/01/25 07:26:04;;;;;;;;;;;;;;;3.72;100.00;101595.34;5056077;28;19936;-57
2023/01/25 07:28:29;;;;;;;;;;;;;;;3.75;100.00;101595.44;5059411;28;19944;-57
2023/01/25 07:30:55;;;;;;;;;;;;;;;3.77;100.00;101595.47;5067760;28;20299;-57
2023/01/25 07:33:21;;;;;;;;;;;;;;;3.85;100.00;101597.41;5068362;28;19940;-58
2023/01/25 07:35:49;;;;;;;;;;;;;;;3.89;100.00;101598.31;5067794;28;20303;-57
2023/01/25 07:38:15;;;;;;;;;;;;;;;3.89;100.00;101595.69;5068135;28;20397;-57
2023/01/25 07:40:40;;;;;;;;;;;;;;;3.98;100.00;101601.16;5068108;28;19935;-57
2023/01/25 07:43:05;;;;;;;;;;;;;;;4.10;100.00;101596.13;5068009;28;19935;-57
2023/01/25 07:45:31;;;;;;;;;;;;;;;4.11;100.00;101603.16;5067981;28;19996;-57
2023/01/25 07:47:57;;;;;;;;;;;;;;;4.16;100.00;101604.13;5068436;28;20446;-57
2023/01/25 07:50:23;;;;;;;;;;;;;;;4.19;100.00;101596.28;5069445;28;20404;-57
2023/01/25 07:52:48;;;;;;;;;;;;;;;4.24;100.00;101610.41;5069493;28;19937;-57
2023/01/25 07:55:14;;;;;;;;;;;;;;;4.29;100.00;101614.00;5054721;28;20305;-57
2023/01/25 07:57:39;;;;;;;;;;;;;;;4.36;100.00;101610.63;5064650;28;20360;-57
2023/01/25 08:00:06;;;;;;;;;;;;;;;4.41;100.00;101608.97;5065987;28;20328;-58
2023/01/25 08:02:32;;;;;;;;;;;;;;;4.45;100.00;101610.78;5063746;28;19984;-57
2023/01/25 08:04:57;;;;;;;;;;;;;;;4.59;100.00;101619.81;5061931;28;19968;-57
2023/01/25 08:07:22;;;;;;;;;;;;;;;4.65;100.00;101625.19;5058591;28;20288;-58
2023/01/25 08:09:47;;;;;;;;;;;;;;;4.77;100.00;101620.13;5063950;28;19993;-57
2023/01/25 08:12:13;;;;;;;;;;;;;;;4.87;100.00;101619.41;5068076;28;19962;-57
2023/01/25 08:14:38;;;;;;;;;;;;;;;4.92;100.00;101625.66;5068328;28;19950;-57
2023/01/25 08:17:03;;;;;;;;;;;;;;;5.03;100.00;101623.16;5065756;28;20479;-57
2023/01/25 08:19:29;;;;;;;;;;;;;;;5.05;100.00;101614.44;5059869;28;19939;-56
2023/01/25 08:21:54;;;;;;;;;;;;;;;5.05;100.00;101622.34;5068010;28;19936;-57
2023/01/25 08:24:19;;;;;;;;;;;;;;;5.09;100.00;101615.38;5067645;28;19976;-57
2023/01/25 08:26:44;;;;;;;;;;;;;;;5.20;100.00;101619.94;5057403;28;19955;-57
2023/01/25 08:29:10;;;;;;;;;;;;;;;5.17;100.00;101611.09;5069120;28;19954;-57
2023/01/25 08:31:38;;;;;;;;;;;;;;;5.30;100.00;101616.53;5067752;28;19946;-57
2023/01/25 08:34:04;;;;;;;;;;;;;;;5.30;100.00;101621.81;5069725;28;19944;-58
2023/01/25 08:36:29;;;;;;;;;;;;;;;5.39;100.00;101618.41;5076384;28;20014;-57
2023/01/25 08:38:55;;;;;;;;;;;;;;;5.39;100.00;101614.03;5069900;28;20391;-57
2023/01/25 08:41:21;;;;;;;;;;;;;;;5.44;100.00;101610.59;5059656;28;19946;-57
2023/01/25 08:43:46;;;;;;;;;;;;;;;5.40;100.00;101599.97;5067945;28;20499;-57
2023/01/25 08:46:12;;;;;;;;;;;;;;;5.52;100.00;101604.53;5047603;28;19940;-57
2023/01/25 08:48:37;;;;;;;;;;;;;;;5.49;100.00;101598.31;5058340;28;19940;-57
2023/01/25 08:51:03;;;;;;;;;;;;;;;5.51;99.78;101591.31;5069097;28;19985;-57
2023/01/25 08:53:31;;;;;;;;;;;;;;;5.53;99.00;101590.47;5061379;28;19975;-57
2023/01/25 08:56:01;;;;;;;;;;;;;;;5.63;99.26;101592.38;5070014;28;19952;-57
2023/01/25 08:58:26;;;;;;;;;;;;;;;5.64;98.25;101588.84;5069461;28;19948;-57
2023/01/25 09:00:52;;;;;;;;;;;;;;;5.63;98.21;101581.81;5055602;28;19934;-57
2023/01/25 09:03:17;;;;;;;;;;;;;;;5.67;98.15;101580.97;5057967;28;20423;-57
2023/01/25 09:05:42;;;;;;;;;;;;;;;5.72;97.39;101581.00;5071130;28;20011;-57
2023/01/25 09:08:09;;;;;;;;;;;;;;;5.74;96.77;101582.81;5056284;28;19948;-57
2023/01/25 09:10:34;;;;;;;;;;;;;;;5.84;97.51;101576.81;5052500;28;19972;-57
2023/01/25 09:13:00;;;;;;;;;;;;;;;5.86;97.44;101576.81;5063808;28;20000;-57
2023/01/25 09:15:25;;;;;;;;;;;;;;;5.79;95.99;101577.59;5071119;28;19958;-57
2023/01/25 09:17:53;;;;;;;;;;;;;;;5.85;96.26;101577.72;5074251;28;19935;-56
2023/01/25 09:20:19;;;;;;;;;;;;;;;5.84;95.23;101581.19;5066325;28;19946;-57
2023/01/25 09:22:44;;;;;;;;;;;;;;;5.93;95.86;101566.34;5072008;28;19938;-58
2023/01/25 09:25:10;;;;;;;;;;;;;;;5.95;94.25;101576.91;5064650;28;20449;-57
2023/01/25 09:27:36;;;;;;;;;;;;;;;6.07;94.03;101579.69;5051341;28;19987;-58
2023/01/25 09:30:01;;;;;;;;;;;;;;;6.05;93.61;101576.16;5050756;28;19975;-57
2023/01/25 09:32:26;;;;;;;;;;;;;;;6.14;93.31;101576.25;5053588;28;20264;-57
2023/01/25 09:34:51;;;;;;;;;;;;;;;6.07;92.27;101569.13;5050333;28;19993;-57
2023/01/25 09:37:17;;;;;;;;;;;;;;;6.09;93.02;101572.69;5059467;28;19939;-57
2023/01/25 09:39:42;;;;;;;;;;;;;;;5.96;94.01;101576.06;5069328;28;19942;-58
2023/01/25 09:42:17;;;;;;;;;;;;;;;6.04;93.92;101574.38;5055704;28;19998;-57
2023/01/25 09:44:45;;;;;;;;;;;;;;;6.04;93.05;101579.66;5069893;28;19949;-57
2023/01/25 09:47:13;;;;;;;;;;;;;;;6.09;93.93;101567.41;5068717;28;19958;-58
2023/01/25 09:49:58;;;;;;;;;;;;;;;6.31;93.45;101574.69;5089381;28;19988;-57
2023/01/25 09:52:46;;;;;;;;;;;;;;;6.40;91.12;101572.09;5086247;28;19944;-57
2023/01/25 09:55:13;;;;;;;;;;;;;;;6.55;91.13;101567.84;5031866;28;19956;-57
2023/01/25 09:57:40;;;;;;;;;;;;;;;6.86;91.37;101574.25;5061804;28;20021;-58
2023/01/25 10:00:19;;;;;;;;;;;;;;;7.06;90.63;101571.72;5053521;28;21929;-57
2023/01/25 10:03:02;;;;;;;;;;;;;;;6.96;88.68;101560.22;5049672;28;19940;-57
2023/01/25 10:05:30;;;;;;;;;;;;;;;7.00;88.73;101561.13;5049225;28;20027;-58
2023/01/25 10:08:16;;;;;;;;;;;;;;;7.10;87.37;101566.47;5051645;28;19938;-58
2023/01/25 10:10:42;;;;;;;;;;;;;;;7.30;87.12;101559.53;5053860;28;19938;-57
2023/01/25 10:13:12;;;;;;;;;;;;;;;7.83;85.70;101552.69;5055612;28;20571;-58
2023/01/25 10:15:47;;;;;;;;;;;;;;;8.35;83.84;101558.13;5049560;28;19965;-57
2023/01/25 10:18:29;;;;;;;;;;;;;;;8.01;79.37;101552.72;5050431;28;20022;-58
2023/01/25 10:20:56;;;;;;;;;;;;;;;7.75;80.82;101558.84;5047666;28;19955;-57
2023/01/25 10:23:28;;;;;;;;;;;;;;;7.46;82.73;101560.50;5049729;28;19970;-57
2023/01/25 10:26:00;;;;;;;;;;;;;;;7.59;83.01;101560.56;5049954;28;20285;-57
2023/01/25 10:28:26;;;;;;;;;;;;;;;7.68;83.02;101560.56;5052810;28;19941;-58
2023/01/25 10:31:01;;;;;;;;;;;;;;;7.45;82.38;101556.06;5052762;28;20015;-58
2023/01/25 10:33:27;;;;;;;;;;;;;;;7.29;82.68;101555.13;5068672;28;19951;-57
2023/01/25 10:35:54;;;;;;;;;;;;;;;7.17;84.10;101559.44;5071772;28;20512;-57
2023/01/25 10:38:31;;;;;;;;;;;;;;;6.99;84.34;101554.94;5053149;28;19944;-57
2023/01/25 10:41:17;;;;;;;;;;;;;;;7.04;85.41;101542.63;5049496;28;19940;-58
2023/01/25 10:43:42;;;;;;;;;;;;;;;7.23;86.27;101540.97;5051332;28;19964;-57
2023/01/25 10:46:26;;;;;;;;;;;;;;;7.18;85.11;101543.56;5067889;28;19933;-57
2023/01/25 10:48:52;;;;;;;;;;;;;;;6.99;85.41;101546.09;5064109;28;20028;-57
2023/01/25 10:51:27;;;;;;;;;;;;;;;7.01;85.49;101539.97;5048987;28;20712;-57
2023/01/25 10:53:58;;;;;;;;;;;;;;;7.02;85.29;101543.50;5051494;28;20303;-58
2023/01/25 10:56:24;;;;;;;;;;;;;;;7.07;85.44;101532.06;5047993;28;19959;-57
2023/01/25 10:58:53;;;;;;;;;;;;;;;7.03;85.80;101535.56;5066970;28;19929;-57
2023/01/25 11:01:28;;;;;;;;;;;;;;;6.92;86.50;101529.31;5058815;28;19937;-58
2023/01/25 11:03:54;;;;;;;;;;;;;;;6.94;87.09;101522.28;5058794;28;19943;-57
2023/01/25 11:06:35;;;;;;;;;;;;;;;6.83;86.48;101526.63;5068546;28;19927;-57
2023/01/25 11:09:20;;;;;;;;;;;;;;;6.81;86.79;101515.16;5065843;28;20402;-57
2023/01/25 11:11:56;;;;;;;;;;;;;;;6.70;87.58;101514.19;5068241;28;20448;-58
2023/01/25 11:14:23;;;;;;;;;;;;;;;6.72;88.00;101512.47;5066790;28;19940;-58
2023/01/25 11:16:48;;;;;;;;;;;;;;;6.76;87.82;101503.66;5067223;28;19964;-57
2023/01/25 11:19:32;;;;;;;;;;;;;;;6.74;88.14;101502.75;5051642;28;20478;-57
2023/01/25 11:21:58;;;;;;;;;;;;;;;6.70;88.07;101498.34;5031252;28;19939;-58
2023/01/25 11:24:42;;;;;;;;;;;;;;;6.67;88.49;101495.69;5060137;28;20447;-57
2023/01/25 11:27:20;;;;;;;;;;;;;;;6.66;88.40;101494.78;5049106;28;20032;-58
2023/01/25 11:30:04;;;;;;;;;;;;;;;6.54;87.70;101496.44;5049380;28;20011;-57
2023/01/25 11:32:30;;;;;;;;;;;;;;;6.38;89.54;101484.00;5051662;28;20723;-58
2023/01/25 11:34:55;;;;;;;;;;;;;;;6.35;89.56;101481.31;5048629;28;19930;-58
2023/01/25 11:37:24;;;;;;;;;;;;;;;6.34;89.20;101474.28;5049722;28;19935;-57
2023/01/25 11:39:49;;;;;;;;;;;;;;;6.46;89.28;101477.00;5063838;28;19990;-58
2023/01/25 11:42:29;;;;;;;;;;;;;;;6.48;89.66;101468.22;5066222;28;19941;-57
2023/01/25 11:44:55;;;;;;;;;;;;;;;6.38;89.58;101470.78;5071769;28;19928;-57
2023/01/25 11:47:23;;;;;;;;;;;;;;;6.28;88.82;101461.00;5060975;28;20061;-57
2023/01/25 11:50:07;;;;;;;;;;;;;;;6.32;89.17;101470.75;5048505;28;19933;-58
2023/01/25 11:52:32;;;;;;;;;;;;;;;6.35;89.05;101455.78;5050708;28;19938;-57
2023/01/25 11:55:03;;;;;;;;;;;;;;;6.30;89.12;101446.94;5048060;28;19943;-57
2023/01/25 11:57:37;;;;;;;;;;;;;;;6.21;88.81;101446.00;5048678;28;19928;-58
2023/01/25 12:00:34;;;;;;;;;;;;;;;6.21;90.29;101438.06;5048396;28;19929;-57
2023/01/25 12:03:00;;;;;;;;;;;;;;;6.27;90.18;101435.47;5048779;28;20323;-58
2023/01/25 12:05:34;;;;;;;;;;;;;;;6.30;89.50;101425.81;5068776;28;19936;-57
2023/01/25 12:08:18;;;;;;;;;;;;;;;6.28;89.90;101426.66;5068314;28;19936;-58
2023/01/25 12:10:44;;;;;;;;;;;;;;;6.32;89.17;101420.53;5053550;28;19934;-58
2023/01/25 12:13:35;;;;;;;;;;;;;;;6.27;90.14;101409.94;5062995;28;19963;-57
2023/01/25 12:16:15;;;;;;;;;;;;;;;6.19;89.62;101405.47;5028436;28;20007;-57
2023/01/25 12:18:59;;;;;;;;;;;;;;;6.26;88.84;101397.59;5052010;28;19927;-57
2023/01/25 12:21:37;;;;;;;;;;;;;;;6.33;88.26;101387.94;5054196;28;19944;-58
2023/01/25 12:24:24;;;;;;;;;;;;;;;6.34;88.24;101387.94;5052001;28;20469;-57
2023/01/25 12:26:59;;;;;;;;;;;;;;;6.46;88.72;101379.22;5053943;28;19990;-57
2023/01/25 12:29:30;;;;;;;;;;;;;;;6.62;88.17;101378.44;5052963;28;19936;-58
2023/01/25 12:32:00;;;;;;;;;;;;;;;6.57;86.98;101361.66;5075073;28;20020;-57
2023/01/25 12:34:34;;;;;;;;;;;;;;;6.56;86.65;101359.88;5071848;28;19945;-58
2023/01/25 12:37:05;;;;;;;;;;;;;;;6.53;86.00;101355.47;5054318;28;19955;-57
2023/01/25 12:39:34;;;;;;;;;;;;;;;6.59;86.83;101350.22;5061600;28;19944;-57
2023/01/25 12:42:05;;;;;;;;;;;;;;;6.64;86.62;101350.22;5072186;28;19932;-57
2023/01/25 12:44:35;;;;;;;;;;;;;;;6.58;85.52;101347.56;5065828;28;19949;-57
2023/01/25 12:47:16;;;;;;;;;;;;;;;6.71;85.41;101352.03;5050958;28;19970;-57
2023/01/25 12:49:51;;;;;;;;;;;;;;;6.80;85.21;101344.16;5051805;28;19935;-57
2023/01/25 12:52:30;;;;;;;;;;;;;;;6.80;85.40;101337.97;5051614;28;19978;-57